Time;durP1;ratioP1;P1;durP2;ratioP2;P2;SDS_P1;SDS_P2;PMS_P1;PMS_P2;Temp;Humidity;BMP_temperature;BMP_pressure;BME280_temperature;BME280_humidity;BME280_pressure;Samples;Min_cycle;Max_cycle;Signal;HPM_P1;HPM_P2
2021/04/21 00:01:02;;;;;;;19.20;11.80;;;6.50;99.90;;;;;;5094005;28;20448;-81
2021/04/21 00:03:30;;;;;;;20.03;12.70;;;6.40;99.90;;;;;;5093116;28;20447;-81
2021/04/21 00:05:57;;;;;;;18.60;11.80;;;6.40;99.90;;;;;;5093932;28;20505;-81
2021/04/21 00:08:25;;;;;;;19.03;11.93;;;6.40;99.90;;;;;;5093897;28;20448;-81
2021/04/21 00:10:52;;;;;;;18.13;12.37;;;6.40;99.90;;;;;;5093566;28;20995;-81
2021/04/21 00:13:19;;;;;;;22.10;12.70;;;6.40;99.90;;;;;;5093517;28;20455;-81
2021/04/21 00:15:45;;;;;;;18.73;12.30;;;6.40;99.90;;;;;;5093702;28;20494;-81
2021/04/21 00:18:15;;;;;;;18.93;12.43;;;6.40;99.90;;;;;;5093777;28;20448;-81
2021/04/21 00:20:42;;;;;;;17.70;11.57;;;6.40;99.90;;;;;;5093874;28;20455;-81
2021/04/21 00:23:11;;;;;;;22.30;12.10;;;6.40;99.90;;;;;;5093662;28;20451;-81
2021/04/21 00:25:39;;;;;;;18.67;12.50;;;6.30;99.90;;;;;;5093547;28;20471;-81
2021/04/21 00:28:08;;;;;;;17.60;12.33;;;6.30;99.90;;;;;;5093088;28;20483;-81
2021/04/21 00:30:36;;;;;;;18.83;11.73;;;6.30;99.90;;;;;;5093563;28;20448;-81
2021/04/21 00:33:03;;;;;;;18.97;11.80;;;6.20;99.90;;;;;;5093539;28;20447;-81
2021/04/21 00:35:36;;;;;;;16.40;12.17;;;6.20;99.90;;;;;;5093150;28;20479;-81
2021/04/21 00:38:07;;;;;;;18.10;11.50;;;6.20;99.90;;;;;;5094067;28;20443;-81
2021/04/21 00:40:41;;;;;;;17.63;11.40;;;6.20;99.90;;;;;;5093538;28;20509;-81
2021/04/21 00:43:17;;;;;;;20.53;11.97;;;6.10;99.90;;;;;;5093523;28;20424;-81
2021/04/21 00:45:46;;;;;;;19.60;12.80;;;6.10;99.90;;;;;;5093399;28;20462;-81
2021/04/21 00:48:25;;;;;;;19.30;13.00;;;6.00;99.90;;;;;;5093410;28;20448;-81
2021/04/21 00:50:57;;;;;;;19.50;12.37;;;6.00;99.90;;;;;;5093400;28;20427;-81
2021/04/21 00:53:31;;;;;;;29.93;14.13;;;5.90;99.90;;;;;;5093042;28;20490;-81
2021/04/21 00:56:05;;;;;;;20.60;12.90;;;6.00;99.90;;;;;;5093258;28;20486;-81
2021/04/21 00:58:44;;;;;;;21.33;13.90;;;6.00;99.90;;;;;;5093377;28;20425;-81
2021/04/21 01:01:11;;;;;;;21.20;13.13;;;6.00;99.90;;;;;;5093323;28;20432;-82
2021/04/21 01:03:39;;;;;;;18.70;12.50;;;6.00;99.90;;;;;;5093234;28;20448;-81
2021/04/21 01:06:10;;;;;;;16.70;11.20;;;6.00;99.90;;;;;;5093239;28;20464;-81
2021/04/21 01:08:41;;;;;;;15.03;11.70;;;6.00;99.90;;;;;;5093029;28;20408;-81
2021/04/21 01:11:10;;;;;;;16.33;11.03;;;6.00;99.90;;;;;;5092925;28;20980;-81
2021/04/21 01:13:44;;;;;;;18.13;12.00;;;6.00;99.90;;;;;;5093193;28;20456;-81
2021/04/21 01:16:12;;;;;;;20.23;11.80;;;5.90;99.90;;;;;;5096258;28;20487;-81
2021/04/21 01:18:42;;;;;;;16.03;11.27;;;5.80;99.90;;;;;;5096809;28;20455;-81
2021/04/21 01:21:14;;;;;;;19.20;13.10;;;5.80;99.90;;;;;;5097151;28;20428;-81
2021/04/21 01:23:53;;;;;;;19.20;12.47;;;5.80;99.90;;;;;;5096755;28;20907;-81
2021/04/21 01:26:34;;;;;;;20.73;12.70;;;5.70;99.90;;;;;;5096470;28;20479;-81
2021/04/21 01:29:04;;;;;;;20.13;12.80;;;5.70;99.90;;;;;;5097427;28;20835;-81
2021/04/21 01:31:33;;;;;;;22.27;12.93;;;5.70;99.90;;;;;;5096925;28;20435;-81
2021/04/21 01:34:01;;;;;;;22.53;12.60;;;5.80;99.90;;;;;;5096806;28;20854;-81
2021/04/21 01:36:29;;;;;;;18.10;11.63;;;5.70;99.90;;;;;;5096377;28;20994;-81
2021/04/21 01:38:59;;;;;;;19.23;11.80;;;5.70;99.90;;;;;;5096390;28;20798;-81
2021/04/21 01:41:28;;;;;;;18.93;11.80;;;5.70;99.90;;;;;;5096649;28;20793;-81
2021/04/21 01:44:00;;;;;;;18.00;11.23;;;5.70;99.90;;;;;;5096591;28;20501;-81
2021/04/21 01:46:30;;;;;;;18.80;11.53;;;5.60;99.90;;;;;;5096364;28;20452;-81
2021/04/21 01:49:05;;;;;;;18.10;11.43;;;5.60;99.90;;;;;;5096814;28;20448;-81
2021/04/21 01:51:33;;;;;;;21.17;12.63;;;5.60;99.90;;;;;;5096539;28;20436;-81
2021/04/21 01:54:07;;;;;;;21.93;12.10;;;5.60;99.90;;;;;;5096109;28;20452;-81
2021/04/21 01:56:42;;;;;;;22.20;12.50;;;5.60;99.90;;;;;;5095963;28;20532;-81
2021/04/21 01:59:18;;;;;;;18.07;10.83;;;5.50;99.90;;;;;;5096371;28;20432;-79
2021/04/21 02:01:52;;;;;;;18.90;11.87;;;5.60;99.90;;;;;;5096020;28;20467;-79
2021/04/21 02:04:33;;;;;;;15.93;10.93;;;5.60;99.90;;;;;;5095998;28;20436;-80
2021/04/21 02:07:09;;;;;;;20.13;12.57;;;5.50;99.90;;;;;;5095985;28;20823;-80
2021/04/21 02:10:07;;;;;;;21.80;11.33;;;5.50;99.90;;;;;;5095866;28;20435;-80
2021/04/21 02:13:05;;;;;;;17.17;11.23;;;5.50;99.90;;;;;;5096189;28;20428;-80
2021/04/21 02:15:52;;;;;;;17.63;11.80;;;5.50;99.90;;;;;;5095924;28;20823;-80
2021/04/21 02:18:28;;;;;;;21.10;12.57;;;5.50;99.90;;;;;;5096000;28;20459;-80
2021/04/21 02:21:06;;;;;;;18.37;12.57;;;5.40;99.90;;;;;;5095657;28;20431;-80
2021/04/21 02:23:45;;;;;;;19.23;11.87;;;5.40;99.90;;;;;;5095908;28;20436;-80
2021/04/21 02:26:22;;;;;;;16.80;11.50;;;5.50;99.90;;;;;;5094452;28;20872;-80
2021/04/21 02:28:53;;;;;;;21.30;13.10;;;5.50;99.90;;;;;;5095886;28;20416;-80
2021/04/21 02:31:42;;;;;;;19.73;11.27;;;5.40;99.90;;;;;;5095769;28;20436;-80
2021/04/21 02:34:16;;;;;;;19.27;12.33;;;5.40;99.90;;;;;;5095448;28;20408;-80
2021/04/21 02:36:46;;;;;;;23.17;12.50;;;5.30;99.90;;;;;;5095274;28;20475;-80
2021/04/21 02:39:19;;;;;;;21.07;13.30;;;5.30;99.90;;;;;;5095610;28;20451;-80
2021/04/21 02:41:51;;;;;;;21.20;12.73;;;5.30;99.90;;;;;;5095522;28;20444;-80
2021/04/21 02:44:28;;;;;;;21.17;11.67;;;5.30;99.90;;;;;;5095377;28;20456;-80
2021/04/21 02:47:00;;;;;;;20.47;11.70;;;5.20;99.90;;;;;;5095461;28;20431;-80
2021/04/21 02:49:49;;;;;;;20.97;13.10;;;5.20;99.90;;;;;;5095423;28;20446;-80
2021/04/21 02:52:31;;;;;;;18.97;12.40;;;5.20;99.90;;;;;;5095070;28;20424;-80
2021/04/21 02:55:08;;;;;;;19.70;12.77;;;5.20;99.90;;;;;;5094873;28;20487;-79
2021/04/21 02:57:45;;;;;;;23.13;13.47;;;5.20;99.90;;;;;;5095278;28;20531;-80
2021/04/21 03:00:15;;;;;;;18.50;13.03;;;5.20;99.90;;;;;;5095451;28;20848;-80
2021/04/21 03:02:47;;;;;;;20.37;12.87;;;5.20;99.90;;;;;;5094933;28;20448;-80
2021/04/21 03:05:19;;;;;;;16.37;11.60;;;5.20;99.90;;;;;;5094990;28;20460;-80
2021/04/21 03:07:53;;;;;;;20.43;12.60;;;5.20;99.90;;;;;;5094991;28;20891;-79
2021/04/21 03:10:22;;;;;;;19.30;12.07;;;5.10;99.90;;;;;;5095364;28;20564;-79
2021/04/21 03:12:55;;;;;;;18.57;12.27;;;5.10;99.90;;;;;;5094824;28;20433;-79
2021/04/21 03:15:24;;;;;;;19.43;12.43;;;5.10;99.90;;;;;;5094809;28;20483;-79
2021/04/21 03:17:54;;;;;;;24.80;13.07;;;5.00;99.90;;;;;;5094585;28;20441;-79
2021/04/21 03:20:23;;;;;;;21.77;13.07;;;5.00;99.90;;;;;;5094627;28;20444;-79
2021/04/21 03:22:54;;;;;;;18.00;12.60;;;5.00;99.90;;;;;;5094745;28;20432;-79
2021/04/21 03:25:26;;;;;;;18.00;12.40;;;5.00;99.90;;;;;;5094354;28;20998;-79
2021/04/21 03:27:56;;;;;;;19.60;13.10;;;5.00;99.90;;;;;;5094202;28;21023;-79
2021/04/21 03:30:25;;;;;;;23.83;12.30;;;5.00;99.90;;;;;;5094327;28;20445;-79
2021/04/21 03:32:57;;;;;;;20.07;12.30;;;4.90;99.90;;;;;;5094261;28;20436;-79
2021/04/21 03:35:26;;;;;;;22.93;12.37;;;4.90;99.90;;;;;;5094066;28;21002;-78
2021/04/21 03:37:58;;;;;;;20.77;13.00;;;4.90;99.90;;;;;;5093909;28;20452;-79
2021/04/21 03:40:24;;;;;;;24.00;13.00;;;4.80;99.90;;;;;;5094466;28;20436;-79
2021/04/21 03:42:51;;;;;;;19.97;12.97;;;4.80;99.90;;;;;;5094319;28;20448;-79
2021/04/21 03:45:18;;;;;;;20.40;11.90;;;4.80;99.90;;;;;;5094201;28;20521;-79
2021/04/21 03:47:44;;;;;;;24.23;13.10;;;4.80;99.90;;;;;;5094165;28;20958;-79
2021/04/21 03:50:12;;;;;;;21.40;13.00;;;4.80;99.90;;;;;;5094549;28;20467;-79
2021/04/21 03:52:42;;;;;;;21.63;13.30;;;4.80;99.90;;;;;;5093913;28;20453;-79
2021/04/21 03:55:11;;;;;;;23.83;12.63;;;4.80;99.90;;;;;;5094044;28;20475;-79
2021/04/21 03:57:43;;;;;;;25.80;14.30;;;4.70;99.90;;;;;;5094782;28;20452;-79
2021/04/21 04:00:15;;;;;;;22.50;12.87;;;4.70;99.90;;;;;;5094535;28;20836;-79
2021/04/21 04:02:46;;;;;;;18.83;13.10;;;4.70;99.90;;;;;;5094064;28;20428;-79
2021/04/21 04:05:14;;;;;;;26.13;14.43;;;4.70;99.90;;;;;;5093952;28;20468;-79
2021/04/21 04:07:43;;;;;;;21.47;11.90;;;4.70;99.90;;;;;;5093578;28;20826;-79
2021/04/21 04:10:13;;;;;;;20.77;13.10;;;4.70;99.90;;;;;;5093587;28;20477;-80
2021/04/21 04:12:43;;;;;;;23.23;13.20;;;4.60;99.90;;;;;;5093909;28;20424;-79
2021/04/21 04:15:11;;;;;;;23.10;14.70;;;4.60;99.90;;;;;;5093415;28;20854;-79
2021/04/21 04:17:39;;;;;;;24.43;13.60;;;4.60;99.90;;;;;;5093806;28;20444;-79
2021/04/21 04:20:08;;;;;;;24.17;14.83;;;4.60;99.90;;;;;;5093752;28;20447;-79
2021/04/21 04:22:38;;;;;;;28.37;15.77;;;4.60;99.90;;;;;;5093699;28;20444;-79
2021/04/21 04:25:08;;;;;;;28.03;15.10;;;4.60;99.90;;;;;;5093323;28;21047;-79
2021/04/21 04:27:39;;;;;;;30.00;15.60;;;4.50;99.90;;;;;;5093189;28;20475;-79
2021/04/21 04:30:07;;;;;;;25.40;14.63;;;4.60;99.90;;;;;;5093620;28;20428;-79
2021/04/21 04:32:37;;;;;;;26.97;14.57;;;4.60;99.90;;;;;;5093543;28;20444;-79
2021/04/21 04:35:03;;;;;;;25.53;15.77;;;4.60;99.90;;;;;;5093158;28;20476;-79
2021/04/21 04:37:30;;;;;;;26.10;15.80;;;4.60;99.90;;;;;;5093236;28;20950;-79
2021/04/21 04:39:56;;;;;;;22.63;12.97;;;4.70;99.90;;;;;;5093523;28;20447;-79
2021/04/21 04:42:23;;;;;;;26.90;15.17;;;4.60;99.90;;;;;;5093446;28;20448;-79
2021/04/21 04:44:51;;;;;;;26.67;15.50;;;4.60;99.90;;;;;;5093268;28;20816;-79
2021/04/21 04:47:22;;;;;;;27.93;15.40;;;4.60;99.90;;;;;;5093382;28;20501;-79
2021/04/21 04:49:55;;;;;;;25.87;15.03;;;4.60;99.90;;;;;;5094463;28;20424;-79
2021/04/21 04:52:22;;;;;;;23.97;15.20;;;4.60;99.90;;;;;;5097648;28;20432;-79
2021/04/21 04:54:51;;;;;;;26.23;14.63;;;4.70;99.90;;;;;;5097399;28;20463;-79
2021/04/21 04:57:19;;;;;;;26.80;14.73;;;4.80;99.90;;;;;;5097221;28;20433;-79
2021/04/21 04:59:47;;;;;;;28.50;16.20;;;4.80;99.90;;;;;;5097506;28;20444;-79
2021/04/21 05:02:16;;;;;;;28.93;15.90;;;4.90;99.90;;;;;;5097503;28;20448;-79
2021/04/21 05:04:51;;;;;;;25.60;15.33;;;4.90;99.90;;;;;;5096885;28;20803;-78
2021/04/21 05:07:24;;;;;;;27.73;15.30;;;5.00;99.90;;;;;;5097439;28;20404;-79
2021/04/21 05:09:52;;;;;;;24.87;14.60;;;5.00;99.90;;;;;;5097363;28;20435;-79
2021/04/21 05:12:21;;;;;;;28.90;16.60;;;5.10;99.90;;;;;;5097258;28;20470;-79
2021/04/21 05:14:53;;;;;;;27.93;16.70;;;5.20;99.90;;;;;;5096739;28;20521;-79
2021/04/21 05:17:58;;;;;;;26.60;15.60;;;5.20;99.90;;;;;;5097802;28;20452;-79
2021/04/21 05:21:00;;;;;;;23.17;14.00;;;5.20;99.90;;;;;;5084747;28;20459;-79
2021/04/21 05:24:14;;;;;;;25.53;15.40;;;5.30;99.90;;;;;;5097117;28;20415;-79
2021/04/21 05:27:29;;;;;;;25.80;14.17;;;5.30;99.90;;;;;;5096603;28;20479;-79
2021/04/21 05:30:48;;;;;;;21.33;14.30;;;5.40;99.90;;;;;;5096673;28;20439;-80
2021/04/21 05:33:50;;;;;;;25.27;15.33;;;5.50;99.90;;;;;;5096579;28;20409;-80
2021/04/21 05:37:07;;;;;;;24.10;14.20;;;5.60;99.90;;;;;;5096681;28;20487;-80
2021/04/21 05:40:07;;;;;;;22.90;14.00;;;5.70;99.90;;;;;;5096475;28;20435;-80
2021/04/21 05:43:14;;;;;;;22.80;13.40;;;5.80;99.90;;;;;;5096708;28;20457;-80
2021/04/21 05:46:11;;;;;;;23.33;14.00;;;6.00;99.90;;;;;;5096569;28;20476;-80
2021/04/21 05:49:01;;;;;;;20.63;13.03;;;6.20;99.90;;;;;;5096306;28;20954;-79
2021/04/21 05:51:56;;;;;;;20.53;12.83;;;6.40;99.90;;;;;;5096554;28;20424;-79
2021/04/21 05:54:50;;;;;;;21.03;14.10;;;6.70;99.90;;;;;;5081057;28;20460;-79
2021/04/21 05:57:59;;;;;;;25.97;15.07;;;6.90;99.90;;;;;;5096165;28;20896;-79
2021/04/21 06:00:44;;;;;;;23.07;14.73;;;7.20;99.90;;;;;;5096022;28;20440;-79
2021/04/21 06:03:11;;;;;;;29.90;16.10;;;7.50;99.90;;;;;;5095973;28;20489;-79
2021/04/21 06:05:38;;;;;;;27.20;15.93;;;7.80;99.90;;;;;;5096172;28;20470;-80
2021/04/21 06:08:11;;;;;;;23.10;13.73;;;8.10;99.90;;;;;;5095827;28;20808;-80
2021/04/21 06:10:38;;;;;;;22.93;14.23;;;8.40;99.90;;;;;;5095931;28;20421;-80
2021/04/21 06:13:04;;;;;;;19.73;13.57;;;8.50;99.90;;;;;;5096097;28;20502;-80
2021/04/21 06:15:33;;;;;;;21.00;14.40;;;8.80;99.90;;;;;;5095587;28;20484;-80
2021/04/21 06:18:01;;;;;;;18.93;14.00;;;9.10;99.90;;;;;;5095972;28;20451;-80
2021/04/21 06:20:34;;;;;;;20.30;14.27;;;9.30;99.90;;;;;;5095636;28;20451;-80
2021/04/21 06:23:04;;;;;;;23.70;14.87;;;9.50;99.90;;;;;;5095960;28;20431;-80
2021/04/21 06:25:30;;;;;;;22.30;14.40;;;9.70;99.90;;;;;;5095778;28;20464;-80
2021/04/21 06:28:11;;;;;;;24.30;16.27;;;9.90;99.90;;;;;;5095406;28;20490;-81
2021/04/21 06:30:37;;;;;;;23.30;14.90;;;10.20;99.90;;;;;;5095805;28;20773;-80
2021/04/21 06:33:06;;;;;;;21.90;14.70;;;10.60;99.90;;;;;;5095516;28;20891;-80
2021/04/21 06:35:33;;;;;;;22.30;15.17;;;11.00;99.90;;;;;;5095601;28;20483;-80
2021/04/21 06:38:01;;;;;;;20.40;14.80;;;11.50;99.90;;;;;;5095696;28;20475;-80
2021/04/21 06:40:28;;;;;;;21.87;15.07;;;12.40;99.90;;;;;;5095557;28;20436;-80
2021/04/21 06:42:56;;;;;;;19.57;13.77;;;13.30;99.90;;;;;;5095582;28;20432;-80
2021/04/21 06:45:23;;;;;;;20.37;14.53;;;14.20;99.90;;;;;;5095973;28;20512;-80
2021/04/21 06:47:51;;;;;;;17.93;13.60;;;15.40;97.00;;;;;;5095511;28;20409;-80
2021/04/21 06:50:17;;;;;;;19.77;13.43;;;16.30;92.10;;;;;;5095744;28;20448;-80
2021/04/21 06:52:45;;;;;;;19.13;14.20;;;16.90;88.60;;;;;;5095374;28;20489;-80
2021/04/21 06:55:14;;;;;;;21.10;13.17;;;17.70;85.00;;;;;;5094863;28;20466;-81
2021/04/21 06:57:41;;;;;;;17.40;13.97;;;18.20;76.30;;;;;;5094976;28;20438;-81
2021/04/21 07:00:10;;;;;;;16.00;12.73;;;18.50;71.50;;;;;;5095153;28;20454;-81
2021/04/21 07:02:38;;;;;;;18.70;14.47;;;19.20;70.60;;;;;;5095070;28;20443;-81
2021/04/21 07:05:06;;;;;;;16.37;13.97;;;19.80;65.40;;;;;;5094709;28;20482;-81
2021/04/21 07:07:32;;;;;;;16.35;13.55;;;20.50;64.90;;;;;;5095048;28;20189;-81
2021/04/21 07:10:00;;;;;;;15.38;12.52;;;20.70;60.40;;;;;;5095065;28;20190;-81
2021/04/21 07:12:27;;;;;;;15.50;13.55;;;21.30;59.10;;;;;;5094405;28;20205;-81
2021/04/21 07:14:54;;;;;;;16.92;15.13;;;21.80;57.20;;;;;;5095107;28;20221;-81
2021/04/21 07:17:20;;;;;;;17.02;13.88;;;22.70;55.60;;;;;;5095332;28;20257;-81
2021/04/21 07:19:47;;;;;;;16.45;14.73;;;23.30;53.70;;;;;;5094803;28;20201;-81
2021/04/21 07:22:14;;;;;;;15.52;13.93;;;23.90;52.40;;;;;;5094498;28;20688;-81
2021/04/21 07:24:45;;;;;;;15.88;14.32;;;24.70;51.10;;;;;;5094667;28;20257;-81
2021/04/21 07:27:13;;;;;;;15.88;14.00;;;25.40;49.00;;;;;;5094289;28;20696;-81
2021/04/21 07:29:44;;;;;;;15.25;13.68;;;26.20;48.00;;;;;;5094646;28;20208;-81
2021/04/21 07:32:21;;;;;;;17.50;15.73;;;26.30;45.80;;;;;;5094638;28;20198;-81
2021/04/21 07:34:58;;;;;;;13.73;12.32;;;26.10;45.80;;;;;;5094373;28;20206;-81
2021/04/21 07:37:35;;;;;;;14.85;13.35;;;26.30;45.70;;;;;;5094469;28;20212;-81
2021/04/21 07:40:19;;;;;;;16.10;14.50;;;26.40;45.10;;;;;;5094463;28;20232;-81
2021/04/21 07:42:46;;;;;;;14.35;12.85;;;26.70;44.50;;;;;;5094299;28;20207;-81
2021/04/21 07:45:13;;;;;;;15.38;13.70;;;27.20;44.40;;;;;;5094009;28;20210;-81
2021/04/21 07:47:40;;;;;;;16.10;14.43;;;27.40;43.40;;;;;;5094285;28;20250;-79
2021/04/21 07:50:08;;;;;;;15.15;13.75;;;27.60;42.40;;;;;;5093928;28;20216;-81
2021/04/21 07:52:36;;;;;;;15.57;13.90;;;27.90;42.10;;;;;;5093894;28;20205;-79
2021/04/21 07:55:08;;;;;;;14.35;12.82;;;28.50;41.40;;;;;;5093818;28;20578;-79
2021/04/21 07:57:35;;;;;;;14.25;12.80;;;29.20;39.50;;;;;;5093780;28;20205;-79
2021/04/21 08:00:03;;;;;;;14.95;13.65;;;29.90;39.20;;;;;;5093773;28;20613;-79
2021/04/21 08:02:34;;;;;;;15.23;13.73;;;30.60;37.20;;;;;;5094003;28;20225;-79
2021/04/21 08:05:05;;;;;;;14.43;13.13;;;30.90;36.00;;;;;;5094212;28;20602;-80
2021/04/21 08:07:39;;;;;;;15.15;13.55;;;31.60;35.20;;;;;;5094004;28;20212;-80
2021/04/21 08:10:09;;;;;;;14.65;12.95;;;31.90;34.90;;;;;;5093655;28;20552;-79
2021/04/21 08:12:37;;;;;;;14.10;12.80;;;32.20;33.70;;;;;;5094071;28;20213;-79
2021/04/21 08:15:07;;;;;;;13.82;12.10;;;32.50;33.80;;;;;;5093776;28;20218;-79
2021/04/21 08:17:52;;;;;;;14.40;13.10;;;32.20;32.30;;;;;;5093774;28;20210;-79
2021/04/21 08:20:31;;;;;;;13.73;12.48;;;32.60;32.20;;;;;;5093573;28;20188;-79
2021/04/21 08:22:59;;;;;;;13.35;12.13;;;32.70;31.80;;;;;;5093817;28;20189;-79
2021/04/21 08:25:26;;;;;;;13.10;11.85;;;32.70;31.80;;;;;;5092297;28;20644;-85
2021/04/21 08:27:52;;;;;;;13.13;11.93;;;33.00;30.90;;;;;;5093226;28;20601;-81
2021/04/21 08:30:21;;;;;;;12.05;11.05;;;33.60;29.60;;;;;;5093674;28;20198;-79
2021/04/21 08:32:47;;;;;;;12.95;11.70;;;33.20;29.70;;;;;;5093647;28;20174;-84
2021/04/21 08:35:15;;;;;;;14.82;13.43;;;33.00;29.70;;;;;;5093256;28;20270;-81
2021/04/21 08:37:42;;;;;;;13.70;12.30;;;32.50;30.40;;;;;;5093652;28;20545;-80
2021/04/21 08:40:11;;;;;;;13.05;11.95;;;32.20;30.00;;;;;;5092743;28;20219;-80
2021/04/21 08:45:47;;;;;;;12.40;11.20;;;31.90;31.20;;;;;;5085151;28;20708;-80
2021/04/21 08:48:14;;;;;;;13.13;11.85;;;31.90;30.00;;;;;;5093174;28;20267;-81
2021/04/21 08:50:41;;;;;;;11.13;10.15;;;31.40;30.40;;;;;;5093466;28;20190;-80
2021/04/21 08:53:09;;;;;;;12.15;11.02;;;30.90;31.10;;;;;;5093783;28;20201;-80
2021/04/21 08:55:37;;;;;;;12.85;11.65;;;29.90;32.30;;;;;;5093239;28;20233;-80
2021/04/21 08:58:03;;;;;;;12.02;10.93;;;29.40;32.30;;;;;;5093079;28;20560;-80
2021/04/21 09:00:30;;;;;;;10.25;9.35;;;29.30;32.60;;;;;;5093382;28;20258;-80
2021/04/21 09:02:59;;;;;;;9.07;8.23;;;29.30;31.30;;;;;;5093368;28;20174;-80
2021/04/21 09:05:26;;;;;;;10.23;9.23;;;28.90;30.00;;;;;;5092990;28;20228;-80
2021/04/21 09:07:52;;;;;;;11.52;10.43;;;29.00;31.20;;;;;;5093342;28;20204;-80
2021/04/21 09:10:19;;;;;;;10.93;9.93;;;28.80;30.60;;;;;;5093269;28;20182;-80
2021/04/21 09:12:46;;;;;;;11.32;10.23;;;28.80;32.00;;;;;;5093251;28;20186;-80
2021/04/21 09:15:15;;;;;;;13.65;10.80;;;29.00;31.60;;;;;;5093080;28;20229;-80
2021/04/21 09:17:46;;;;;;;10.50;9.50;;;29.30;31.30;;;;;;5093335;28;20538;-80
2021/04/21 09:20:15;;;;;;;10.05;9.07;;;29.80;30.90;;;;;;5093157;28;20240;-80
2021/04/21 09:22:59;;;;;;;10.93;9.93;;;29.70;31.50;;;;;;5092846;28;20637;-80
2021/04/21 09:25:31;;;;;;;10.52;9.52;;;29.90;30.50;;;;;;5093067;28;20218;-80
2021/04/21 09:27:57;;;;;;;11.57;10.35;;;30.00;30.10;;;;;;5092719;28;20240;-80
2021/04/21 09:30:26;;;;;;;9.90;8.93;;;30.20;29.90;;;;;;5093339;28;20548;-80
2021/04/21 09:32:54;;;;;;;10.20;9.30;;;29.80;29.30;;;;;;5092786;28;20288;-80
2021/04/21 09:35:23;;;;;;;9.40;8.50;;;29.30;30.40;;;;;;5093348;28;20764;-80
2021/04/21 09:37:52;;;;;;;9.63;8.73;;;28.90;31.30;;;;;;5096883;28;20188;-80
2021/04/21 09:45:33;;;;;;;9.68;8.88;;;27.00;31.60;;;;;;5386594;22;20288;-85
2021/04/21 09:48:11;;;;;;;10.10;9.02;;;26.20;33.90;;;;;;5057523;28;20264;-83
2021/04/21 09:50:39;;;;;;;10.30;9.20;;;26.00;35.80;;;;;;5057635;28;20186;-82
2021/04/21 09:53:26;;;;;;;9.68;8.57;;;25.40;35.10;;;;;;5057156;28;20194;-83
2021/04/21 09:56:08;;;;;;;8.02;7.38;;;24.90;35.70;;;;;;5057080;28;20321;-83
2021/04/21 09:58:36;;;;;;;10.43;9.32;;;25.20;34.70;;;;;;5057177;28;20195;-85
2021/04/21 10:01:20;;;;;;;9.90;8.90;;;25.90;35.00;;;;;;5057449;28;20188;-83
2021/04/21 10:03:47;;;;;;;9.85;8.68;;;26.30;32.70;;;;;;5057230;28;20210;-83
2021/04/21 10:06:21;;;;;;;10.00;8.70;;;26.00;33.30;;;;;;5057098;28;20225;-83
2021/04/21 10:08:48;;;;;;;7.57;6.82;;;26.30;35.30;;;;;;5507114;22;20222;-80
2021/04/21 10:13:51;;;;;;;9.85;8.50;;;26.20;32.90;;;;;;5401308;22;20280;-79
2021/04/21 10:16:18;;;;;;;9.68;8.60;;;26.70;31.60;;;;;;5658988;22;20367;-82
2021/04/21 10:18:45;;;;;;;8.73;7.93;;;26.50;33.40;;;;;;5276646;22;20740;-83
2021/04/21 10:21:16;;;;;;;8.88;8.07;;;26.30;34.10;;;;;;5055942;28;20182;-86
2021/04/21 10:23:44;;;;;;;10.18;8.43;;;26.50;33.60;;;;;;5055836;28;20237;-83
2021/04/21 10:26:13;;;;;;;10.07;9.00;;;26.00;33.10;;;;;;5055634;28;20222;-83
2021/04/21 10:28:41;;;;;;;9.60;8.60;;;25.20;33.70;;;;;;5055686;28;20183;-82
2021/04/21 10:31:09;;;;;;;11.70;9.93;;;24.30;36.10;;;;;;5055607;28;20183;-81
2021/04/21 10:33:35;;;;;;;10.88;9.77;;;23.60;37.00;;;;;;5055954;28;20195;-81
2021/04/21 10:36:02;;;;;;;10.93;9.37;;;22.90;37.40;;;;;;5055019;28;20596;-82
2021/04/21 10:38:29;;;;;;;10.83;8.93;;;22.60;38.30;;;;;;5055481;28;20187;-82
2021/04/21 10:41:21;;;;;;;13.20;9.17;;;22.40;38.00;;;;;;5055406;28;20265;-81
2021/04/21 10:51:35;;;;;;;14.90;9.93;;;20.70;41.00;;;;;;5591970;22;20474;-84
2021/04/21 11:15:10;;;;;;;12.63;9.30;;;19.20;42.60;;;;;;5229983;22;20488;-84
2021/04/21 11:27:59;;;;;;;10.30;8.23;;;18.60;44.90;;;;;;5095293;22;20492;-83
2021/04/21 11:30:55;;;;;;;14.23;9.03;;;18.60;43.60;;;;;;5095386;28;20910;-83
2021/04/21 11:33:56;;;;;;;11.77;8.97;;;18.60;43.90;;;;;;5094880;28;20456;-82
2021/04/21 11:36:55;;;;;;;10.30;8.53;;;18.50;43.20;;;;;;5094880;28;20486;-83
2021/04/21 11:40:00;;;;;;;9.77;7.83;;;18.40;44.50;;;;;;5094858;28;20515;-82
2021/04/21 11:42:32;;;;;;;10.90;8.70;;;18.50;44.40;;;;;;5092267;28;20470;-83
2021/04/21 11:45:08;;;;;;;10.00;8.60;;;18.70;43.50;;;;;;5094746;28;20471;-82
2021/04/21 11:47:42;;;;;;;9.90;8.53;;;18.80;43.60;;;;;;5094929;28;20420;-83
2021/04/21 11:50:21;;;;;;;9.90;7.93;;;19.10;43.60;;;;;;5094698;28;20455;-83
2021/04/21 11:52:54;;;;;;;9.87;8.30;;;19.40;43.70;;;;;;5094634;28;20413;-82
2021/04/21 11:55:32;;;;;;;10.30;8.50;;;19.70;42.70;;;;;;5094657;28;20464;-83
2021/04/21 11:58:00;;;;;;;9.37;7.67;;;20.10;42.40;;;;;;5094615;28;20485;-83
2021/04/21 12:00:30;;;;;;;8.43;7.63;;;20.10;42.10;;;;;;5094428;28;20444;-83
2021/04/21 12:02:57;;;;;;;10.27;8.50;;;20.40;42.30;;;;;;5097154;28;20479;-83
2021/04/21 12:05:26;;;;;;;11.13;8.70;;;20.60;41.60;;;;;;5094023;28;20459;-83
2021/04/21 12:07:53;;;;;;;8.00;7.20;;;20.70;40.00;;;;;;5094068;28;21015;-83
2021/04/21 12:10:21;;;;;;;10.20;7.90;;;20.60;39.30;;;;;;5094340;28;20448;-83
2021/04/21 12:12:48;;;;;;;7.40;6.70;;;20.30;39.70;;;;;;5093948;28;20451;-83
2021/04/21 12:15:16;;;;;;;8.97;7.60;;;20.40;40.30;;;;;;5094671;28;20472;-83
2021/04/21 12:17:51;;;;;;;10.67;8.93;;;20.50;38.80;;;;;;5094183;28;21006;-83
2021/04/21 12:20:25;;;;;;;10.17;7.80;;;20.70;38.70;;;;;;5094136;28;20431;-83
2021/04/21 12:22:52;;;;;;;7.93;7.10;;;20.80;38.10;;;;;;5094337;28;20447;-84
2021/04/21 12:25:22;;;;;;;8.20;6.40;;;20.80;40.20;;;;;;5094132;28;20471;-84
2021/04/21 12:27:54;;;;;;;7.90;6.80;;;20.90;39.30;;;;;;5094297;28;20475;-84
2021/04/21 12:30:23;;;;;;;9.27;7.40;;;21.00;39.20;;;;;;5094298;28;20436;-83
2021/04/21 12:32:50;;;;;;;9.63;8.20;;;20.90;39.00;;;;;;5094129;28;20479;-83
2021/04/21 12:35:19;;;;;;;10.47;9.30;;;21.10;40.50;;;;;;5094609;28;20455;-85
2021/04/21 12:37:55;;;;;;;9.10;8.20;;;21.20;39.70;;;;;;5094394;28;20455;-84
2021/04/21 12:40:24;;;;;;;10.63;8.40;;;21.00;39.60;;;;;;5094339;28;20446;-84
2021/04/21 12:42:52;;;;;;;12.90;9.90;;;20.70;40.00;;;;;;5094386;28;20432;-85
2021/04/21 12:45:31;;;;;;;11.50;9.00;;;20.40;40.10;;;;;;5094288;28;20550;-84
2021/04/21 12:47:58;;;;;;;11.97;9.27;;;20.00;40.60;;;;;;5094189;28;20431;-85
2021/04/21 12:50:31;;;;;;;12.20;9.30;;;19.70;41.90;;;;;;5094313;28;20436;-85
2021/04/21 12:53:11;;;;;;;12.80;10.03;;;19.40;41.70;;;;;;5094333;28;20492;-85
2021/04/21 12:55:38;;;;;;;9.90;7.90;;;19.20;40.90;;;;;;5094191;28;20464;-85
2021/04/21 12:58:04;;;;;;;11.80;8.50;;;18.90;43.00;;;;;;5094245;28;20899;-85
2021/04/21 13:00:31;;;;;;;9.60;7.43;;;18.70;42.30;;;;;;5094314;28;20443;-85
2021/04/21 13:02:58;;;;;;;9.27;8.33;;;18.60;41.70;;;;;;5094328;28;20440;-85
2021/04/21 13:05:44;;;;;;;10.70;8.60;;;18.50;42.40;;;;;;5094249;28;20957;-84
2021/04/21 13:08:24;;;;;;;14.80;9.83;;;18.30;44.70;;;;;;5093858;28;20983;-85
2021/04/21 13:10:52;;;;;;;11.50;9.00;;;18.10;44.60;;;;;;5095248;28;20436;-84
2021/04/21 13:13:23;;;;;;;12.63;10.00;;;18.00;45.00;;;;;;5098337;28;20513;-85
2021/04/21 13:15:49;;;;;;;10.57;8.10;;;18.00;45.20;;;;;;5098134;28;20985;-85
2021/04/21 13:18:17;;;;;;;11.27;8.70;;;18.00;44.60;;;;;;5098180;28;20454;-85
2021/04/21 13:20:46;;;;;;;10.50;8.30;;;17.90;44.30;;;;;;5098017;28;20418;-85
2021/04/21 13:23:15;;;;;;;11.10;8.90;;;17.90;44.20;;;;;;5097801;28;20947;-85
2021/04/21 13:26:00;;;;;;;9.80;8.00;;;17.70;43.90;;;;;;5097673;28;20472;-85
2021/04/21 13:28:38;;;;;;;9.03;8.10;;;17.80;44.10;;;;;;5098164;28;20464;-85
2021/04/21 13:31:13;;;;;;;12.87;9.20;;;17.70;43.50;;;;;;5097911;28;20427;-85
2021/04/21 13:33:42;;;;;;;10.50;8.83;;;17.60;42.90;;;;;;5097525;28;20404;-85
2021/04/21 13:36:09;;;;;;;11.33;8.83;;;17.50;43.80;;;;;;5097315;28;20510;-85
2021/04/21 13:38:36;;;;;;;10.50;8.80;;;17.40;44.40;;;;;;5097943;28;20458;-85
2021/04/21 13:41:03;;;;;;;11.40;8.17;;;17.30;48.80;;;;;;5097809;28;20436;-85
2021/04/21 13:43:29;;;;;;;8.47;7.10;;;17.20;48.50;;;;;;5097559;28;20415;-84
2021/04/21 13:45:56;;;;;;;10.33;8.43;;;17.00;50.90;;;;;;5098242;28;20460;-82
2021/04/21 13:48:22;;;;;;;9.13;7.67;;;16.80;50.80;;;;;;5097717;28;20438;-85
2021/04/21 13:50:49;;;;;;;7.90;6.80;;;16.50;52.20;;;;;;5097881;28;20976;-85
2021/04/21 13:53:16;;;;;;;10.67;6.73;;;16.30;53.00;;;;;;5097786;28;20432;-84